Time,TemperatureF,DewpointF,PressureIn,WindDirection,WindDirectionDegrees,WindSpeedMPH,WindSpeedGustMPH,Humidity,HourlyPrecipIn,Conditions,Clouds,dailyrainin,SoftwareType,DateUTC
2013-06-25 00:03:00,74.0,72.8,30.10,ESE,117,0.0,0.0,96,0.00,,,0.00,Wunderground v.1.15,2013-06-25 05:03:00,
2013-06-25 00:12:00,74.0,72.8,30.09,ESE,117,0.0,0.0,96,0.00,,,0.00,Wunderground v.1.15,2013-06-25 05:12:00,
2013-06-25 00:17:00,74.1,72.6,30.09,ESE,117,0.0,0.0,95,0.00,,,0.00,Wunderground v.1.15,2013-06-25 05:17:00,
2013-06-25 00:23:00,74.1,72.6,30.09,ESE,117,0.0,0.0,95,0.00,,,0.00,Wunderground v.1.15,2013-06-25 05:23:00,
2013-06-25 00:28:00,74.1,72.6,30.09,ESE,117,0.0,0.0,95,0.00,,,0.00,Wunderground v.1.15,2013-06-25 05:28:00,
2013-06-25 00:33:00,74.2,72.7,30.09,ESE,117,0.0,0.0,95,0.00,,,0.00,Wunderground v.1.15,2013-06-25 05:33:00,
2013-06-25 00:43:00,74.3,72.5,30.09,ESE,117,0.0,0.0,94,0.00,,,0.00,Wunderground v.1.15,2013-06-25 05:43:00,
2013-06-25 00:48:00,74.4,72.6,30.09,ESE,117,0.0,0.0,94,0.00,,,0.00,Wunderground v.1.15,2013-06-25 05:48:00,
2013-06-25 00:58:00,74.5,72.7,30.09,ESE,117,0.0,0.0,94,0.00,,,0.00,Wunderground v.1.15,2013-06-25 05:58:00,
2013-06-25 01:03:00,74.5,72.7,30.08,ESE,117,0.0,0.0,94,0.00,,,0.00,Wunderground v.1.15,2013-06-25 06:03:00,
2013-06-25 01:08:00,74.5,72.7,30.08,ESE,117,0.0,0.0,94,0.00,,,0.00,Wunderground v.1.15,2013-06-25 06:08:00,
2013-06-25 01:13:00,74.4,72.6,30.08,ESE,117,0.0,0.0,94,0.00,,,0.00,Wunderground v.1.15,2013-06-25 06:13:00,
2013-06-25 01:18:00,74.4,72.9,30.08,ESE,117,0.0,0.0,95,0.00,,,0.00,Wunderground v.1.15,2013-06-25 06:18:00,
2013-06-25 01:23:00,74.4,72.9,30.08,ESE,117,0.0,0.0,95,0.00,,,0.00,Wunderground v.1.15,2013-06-25 06:23:00,
2013-06-25 01:33:00,74.3,72.8,30.08,ESE,117,0.0,0.0,95,0.00,,,0.00,Wunderground v.1.15,2013-06-25 06:33:00,
2013-06-25 01:38:00,74.3,72.8,30.08,ESE,117,0.0,0.0,95,0.00,,,0.00,Wunderground v.1.15,2013-06-25 06:38:00,
2013-06-25 01:43:00,74.2,72.7,30.08,ESE,117,0.0,0.0,95,0.00,,,0.00,Wunderground v.1.15,2013-06-25 06:43:00,
2013-06-25 01:48:00,74.2,72.7,30.08,ESE,117,0.0,0.0,95,0.00,,,0.00,Wunderground v.1.15,2013-06-25 06:48:00,
2013-06-25 01:53:00,74.1,72.3,30.08,ESE,117,0.0,0.0,94,0.00,,,0.00,Wunderground v.1.15,2013-06-25 06:53:00,
2013-06-25 02:03:00,73.4,71.9,30.08,ESE,117,0.0,0.0,95,0.00,,,0.00,Wunderground v.1.15,2013-06-25 07:03:00,
2013-06-25 02:12:00,73.3,72.1,30.07,ESE,117,0.0,0.0,96,0.00,,,0.00,Wunderground v.1.15,2013-06-25 07:12:00,
2013-06-25 02:17:00,73.1,71.6,30.07,ESE,117,0.0,0.0,95,0.00,,,0.00,Wunderground v.1.15,2013-06-25 07:17:00,
2013-06-25 02:27:00,72.8,71.6,30.07,ESE,117,0.0,0.0,96,0.00,,,0.00,Wunderground v.1.15,2013-06-25 07:27:00,
2013-06-25 02:38:00,72.6,71.4,30.07,ESE,117,0.0,0.0,96,0.00,,,0.00,Wunderground v.1.15,2013-06-25 07:38:00,
2013-06-25 02:43:00,72.6,71.4,30.07,ESE,117,0.0,0.0,96,0.00,,,0.00,Wunderground v.1.15,2013-06-25 07:43:00,
2013-06-25 02:48:00,72.7,71.8,30.07,ESE,117,0.0,0.0,97,0.00,,,0.00,Wunderground v.1.15,2013-06-25 07:48:00,
2013-06-25 02:53:00,72.6,71.4,30.07,ESE,117,0.0,0.0,96,0.00,,,0.00,Wunderground v.1.15,2013-06-25 07:53:00,
2013-06-25 03:02:00,72.2,71.0,30.06,ESE,117,0.0,0.0,96,0.00,,,0.00,Wunderground v.1.15,2013-06-25 08:02:00,
2013-06-25 03:07:00,72.1,70.9,30.06,ESE,117,0.0,0.0,96,0.00,,,0.00,Wunderground v.1.15,2013-06-25 08:07:00,
2013-06-25 03:12:00,71.9,70.7,30.06,ESE,117,0.0,0.0,96,0.00,,,0.00,Wunderground v.1.15,2013-06-25 08:12:00,
2013-06-25 03:17:00,71.6,70.4,30.06,ESE,117,0.0,0.0,96,0.00,,,0.00,Wunderground v.1.15,2013-06-25 08:17:00,
2013-06-25 03:22:00,71.5,70.3,30.06,ESE,117,0.0,0.0,96,0.00,,,0.00,Wunderground v.1.15,2013-06-25 08:22:00,
2013-06-25 03:27:00,71.4,70.2,30.06,ESE,117,0.0,0.0,96,0.00,,,0.00,Wunderground v.1.15,2013-06-25 08:27:00,
2013-06-25 03:32:00,71.2,70.3,30.06,ESE,117,0.0,0.0,97,0.00,,,0.00,Wunderground v.1.15,2013-06-25 08:32:00,
2013-06-25 03:38:00,71.1,70.2,30.06,ESE,117,0.0,0.0,97,0.00,,,0.00,Wunderground v.1.15,2013-06-25 08:38:00,
2013-06-25 03:43:00,71.0,70.1,30.06,ESE,117,0.0,0.0,97,0.00,,,0.00,Wunderground v.1.15,2013-06-25 08:43:00,
2013-06-25 03:48:00,70.9,70.0,30.06,ESE,117,0.0,0.0,97,0.00,,,0.00,Wunderground v.1.15,2013-06-25 08:48:00,
2013-06-25 03:53:00,70.8,69.9,30.07,ESE,117,0.0,0.0,97,0.00,,,0.00,Wunderground v.1.15,2013-06-25 08:53:00,
2013-06-25 03:58:00,70.8,69.9,30.06,ESE,117,0.0,0.0,97,0.00,,,0.00,Wunderground v.1.15,2013-06-25 08:58:00,
2013-06-25 04:07:00,70.9,70.0,30.07,ESE,117,0.0,0.0,97,0.00,,,0.00,Wunderground v.1.15,2013-06-25 09:07:00,
2013-06-25 04:17:00,70.9,70.0,30.07,ESE,117,0.0,0.0,97,0.00,,,0.00,Wunderground v.1.15,2013-06-25 09:17:00,
2013-06-25 04:22:00,70.8,69.9,30.07,ESE,117,0.0,0.0,97,0.00,,,0.00,Wunderground v.1.15,2013-06-25 09:22:00,
2013-06-25 04:27:00,70.7,69.8,30.07,ESE,117,0.0,0.0,97,0.00,,,0.00,Wunderground v.1.15,2013-06-25 09:27:00,
2013-06-25 04:32:00,70.6,70.0,30.07,ESE,117,0.0,0.0,98,0.00,,,0.00,Wunderground v.1.15,2013-06-25 09:32:00,
2013-06-25 04:38:00,70.6,70.0,30.07,ESE,117,0.0,0.0,98,0.00,,,0.00,Wunderground v.1.15,2013-06-25 09:38:00,
2013-06-25 04:48:00,70.5,69.9,30.07,ESE,117,0.0,0.0,98,0.00,,,0.00,Wunderground v.1.15,2013-06-25 09:48:00,
2013-06-25 04:53:00,70.4,69.8,30.07,ESE,117,0.0,0.0,98,0.00,,,0.00,Wunderground v.1.15,2013-06-25 09:53:00,
2013-06-25 04:58:00,70.2,69.3,30.07,ESE,117,0.0,0.0,97,0.00,,,0.00,Wunderground v.1.15,2013-06-25 09:58:00,
2013-06-25 05:03:00,70.1,69.5,30.07,ESE,117,0.0,0.0,98,0.00,,,0.00,Wunderground v.1.15,2013-06-25 10:03:00,
2013-06-25 05:12:00,70.0,69.4,30.07,ESE,117,0.0,0.0,98,0.00,,,0.00,Wunderground v.1.15,2013-06-25 10:12:00,
2013-06-25 05:22:00,70.0,69.4,30.07,ESE,117,0.0,0.0,98,0.00,,,0.00,Wunderground v.1.15,2013-06-25 10:22:00,
2013-06-25 05:27:00,70.0,69.4,30.07,ESE,117,0.0,0.0,98,0.00,,,0.00,Wunderground v.1.15,2013-06-25 10:27:00,
2013-06-25 05:32:00,70.1,69.5,30.07,ESE,117,0.0,0.0,98,0.00,,,0.00,Wunderground v.1.15,2013-06-25 10:32:00,
2013-06-25 05:38:00,70.0,69.4,30.08,ESE,117,0.0,0.0,98,0.00,,,0.00,Wunderground v.1.15,2013-06-25 10:38:00,
2013-06-25 05:43:00,69.9,69.3,30.08,ESE,117,0.0,0.0,98,0.00,,,0.00,Wunderground v.1.15,2013-06-25 10:43:00,
2013-06-25 05:53:00,69.9,69.3,30.08,ESE,117,0.0,0.0,98,0.00,,,0.00,Wunderground v.1.15,2013-06-25 10:53:00,
2013-06-25 05:58:00,69.7,69.1,30.08,ESE,117,0.0,0.0,98,0.00,,,0.00,Wunderground v.1.15,2013-06-25 10:58:00,
2013-06-25 06:03:00,69.5,68.9,30.08,ESE,117,0.0,0.0,98,0.00,,,0.00,Wunderground v.1.15,2013-06-25 11:03:00,
2013-06-25 06:12:00,69.1,68.5,30.09,ESE,117,0.0,0.0,98,0.00,,,0.00,Wunderground v.1.15,2013-06-25 11:12:00,
2013-06-25 06:17:00,69.4,68.8,30.09,ESE,117,0.0,0.0,98,0.00,,,0.00,Wunderground v.1.15,2013-06-25 11:17:00,
2013-06-25 06:23:00,69.6,69.0,30.09,ESE,117,0.0,0.0,98,0.00,,,0.00,Wunderground v.1.15,2013-06-25 11:23:00,
2013-06-25 06:28:00,69.8,69.2,30.09,ESE,117,0.0,0.0,98,0.00,,,0.00,Wunderground v.1.15,2013-06-25 11:28:00,
2013-06-25 06:38:00,70.2,69.6,30.09,ESE,117,0.0,0.0,98,0.00,,,0.00,Wunderground v.1.15,2013-06-25 11:38:00,
2013-06-25 06:43:00,70.4,69.8,30.09,ESE,117,0.0,0.0,98,0.00,,,0.00,Wunderground v.1.15,2013-06-25 11:43:00,
2013-06-25 06:48:00,70.7,70.4,30.09,ESE,117,0.0,0.0,99,0.00,,,0.00,Wunderground v.1.15,2013-06-25 11:48:00,
2013-06-25 06:58:00,71.1,70.5,30.09,ESE,117,0.0,0.0,98,0.00,,,0.00,Wunderground v.1.15,2013-06-25 11:58:00,
2013-06-25 07:03:00,71.4,71.1,30.10,ESE,117,0.0,0.0,99,0.00,,,0.00,Wunderground v.1.15,2013-06-25 12:03:00,
2013-06-25 07:08:00,71.8,71.5,30.10,ESE,117,0.0,0.0,99,0.00,,,0.00,Wunderground v.1.15,2013-06-25 12:08:00,
2013-06-25 07:13:00,72.2,71.9,30.10,ESE,117,0.0,0.0,99,0.00,,,0.00,Wunderground v.1.15,2013-06-25 12:13:00,
2013-06-25 07:18:00,72.7,72.4,30.10,ESE,117,0.0,0.0,99,0.00,,,0.00,Wunderground v.1.15,2013-06-25 12:18:00,
2013-06-25 07:28:00,73.7,73.1,30.10,ESE,117,0.0,0.0,98,0.00,,,0.00,Wunderground v.1.15,2013-06-25 12:28:00,
2013-06-25 07:33:00,74.1,73.5,30.10,ESE,117,0.0,0.0,98,0.00,,,0.00,Wunderground v.1.15,2013-06-25 12:33:00,
2013-06-25 07:38:00,74.6,74.0,30.10,East,80,0.0,0.0,98,0.00,,,0.00,Wunderground v.1.15,2013-06-25 12:38:00,
2013-06-25 07:43:00,75.1,74.5,30.10,East,79,0.0,0.0,98,0.00,,,0.00,Wunderground v.1.15,2013-06-25 12:43:00,
2013-06-25 07:48:00,75.7,74.8,30.11,East,79,0.0,0.0,97,0.00,,,0.00,Wunderground v.1.15,2013-06-25 12:48:00,
2013-06-25 07:53:00,76.4,75.5,30.11,East,79,0.0,0.0,97,0.00,,,0.00,Wunderground v.1.15,2013-06-25 12:53:00,
2013-06-25 08:03:00,78.3,76.4,30.11,East,79,0.0,0.0,94,0.00,,,0.00,Wunderground v.1.15,2013-06-25 13:03:00,
2013-06-25 08:12:00,80.0,76.5,30.11,ENE,78,0.0,0.0,89,0.00,,,0.00,Wunderground v.1.15,2013-06-25 13:12:00,
2013-06-25 08:17:00,80.3,76.8,30.11,ENE,78,0.0,0.0,89,0.00,,,0.00,Wunderground v.1.15,2013-06-25 13:17:00,
2013-06-25 08:22:00,80.8,76.9,30.11,ENE,78,0.0,0.0,88,0.00,,,0.00,Wunderground v.1.15,2013-06-25 13:22:00,
2013-06-25 08:27:00,81.4,77.2,30.11,ENE,78,0.0,0.0,87,0.00,,,0.00,Wunderground v.1.15,2013-06-25 13:27:00,
2013-06-25 08:38:00,82.5,77.9,30.11,ENE,77,0.0,0.0,86,0.00,,,0.00,Wunderground v.1.15,2013-06-25 13:38:00,
2013-06-25 08:43:00,83.2,77.5,30.11,ENE,76,0.0,0.0,83,0.00,,,0.00,Wunderground v.1.15,2013-06-25 13:43:00,
2013-06-25 08:52:00,84.4,78.7,30.11,ENE,77,0.0,0.0,83,0.00,,,0.00,Wunderground v.1.15,2013-06-25 13:52:00,
2013-06-25 08:57:00,84.4,77.9,30.10,ENE,76,0.0,0.0,81,0.00,,,0.00,Wunderground v.1.15,2013-06-25 13:57:00,
2013-06-25 09:03:00,84.5,77.6,30.10,ENE,77,0.0,0.0,80,0.00,,,0.00,Wunderground v.1.15,2013-06-25 14:03:00,
2013-06-25 09:12:00,85.3,77.7,30.10,ENE,77,0.0,0.0,78,0.00,,,0.00,Wunderground v.1.15,2013-06-25 14:12:00,
2013-06-25 09:17:00,84.8,77.2,30.10,ENE,77,0.0,0.0,78,0.00,,,0.00,Wunderground v.1.15,2013-06-25 14:17:00,
2013-06-25 09:22:00,83.9,77.8,30.10,ENE,77,0.0,0.0,82,0.00,,,0.00,Wunderground v.1.15,2013-06-25 14:22:00,
2013-06-25 09:27:00,83.8,77.0,30.10,ENE,77,0.0,0.0,80,0.00,,,0.00,Wunderground v.1.15,2013-06-25 14:27:00,
2013-06-25 09:32:00,84.6,77.7,30.10,NNE,15,0.0,0.0,80,0.00,,,0.00,Wunderground v.1.15,2013-06-25 14:32:00,
2013-06-25 09:42:00,85.4,77.8,30.10,NNE,13,0.0,0.0,78,0.00,,,0.00,Wunderground v.1.15,2013-06-25 14:42:00,
2013-06-25 09:47:00,85.6,77.9,30.10,West,270,0.0,0.0,78,0.00,,,0.00,Wunderground v.1.15,2013-06-25 14:47:00,
2013-06-25 09:52:00,85.8,77.0,30.10,West,263,0.0,0.0,75,0.00,,,0.00,Wunderground v.1.15,2013-06-25 14:52:00,
2013-06-25 09:57:00,86.2,76.1,30.10,West,263,0.0,0.0,72,0.00,,,0.00,Wunderground v.1.15,2013-06-25 14:57:00,
2013-06-25 10:02:00,86.4,76.7,30.10,West,263,0.0,0.0,73,0.00,,,0.00,Wunderground v.1.15,2013-06-25 15:02:00,
2013-06-25 10:07:00,86.0,77.1,30.09,West,259,0.0,0.0,75,0.00,,,0.00,Wunderground v.1.15,2013-06-25 15:07:00,
2013-06-25 10:12:00,86.2,76.5,30.09,West,261,0.0,0.0,73,0.00,,,0.00,Wunderground v.1.15,2013-06-25 15:12:00,
2013-06-25 10:17:00,87.2,76.6,30.09,ENE,78,0.0,0.0,71,0.00,,,0.00,Wunderground v.1.15,2013-06-25 15:17:00,
2013-06-25 10:22:00,87.7,76.7,30.09,ENE,78,0.0,0.0,70,0.00,,,0.00,Wunderground v.1.15,2013-06-25 15:22:00,
2013-06-25 10:27:00,88.0,77.8,30.09,ENE,78,0.0,0.0,72,0.00,,,0.00,Wunderground v.1.15,2013-06-25 15:27:00,
2013-06-25 10:32:00,87.8,77.6,30.09,ENE,78,0.0,0.0,72,0.00,,,0.00,Wunderground v.1.15,2013-06-25 15:32:00,
2013-06-25 10:37:00,87.5,76.9,30.10,ENE,78,0.0,0.0,71,0.00,,,0.00,Wunderground v.1.15,2013-06-25 15:37:00,
2013-06-25 10:47:00,85.5,77.1,30.10,ENE,78,0.0,0.0,76,0.00,,,0.00,Wunderground v.1.15,2013-06-25 15:47:00,
2013-06-25 10:52:00,85.1,76.7,30.09,ENE,78,0.0,0.0,76,0.00,,,0.00,Wunderground v.1.15,2013-06-25 15:52:00,
2013-06-25 10:57:00,84.9,77.3,30.09,ENE,78,0.0,0.0,78,0.00,,,0.00,Wunderground v.1.15,2013-06-25 15:57:00,
2013-06-25 11:02:00,85.5,77.9,30.09,ENE,78,0.0,0.0,78,0.00,,,0.00,Wunderground v.1.15,2013-06-25 16:02:00,
2013-06-25 11:08:00,86.6,76.9,30.09,ESE,116,0.0,0.0,73,0.00,,,0.00,Wunderground v.1.15,2013-06-25 16:08:00,
2013-06-25 11:17:00,88.3,77.7,30.09,East,84,0.0,0.0,71,0.00,,,0.00,Wunderground v.1.15,2013-06-25 16:17:00,
2013-06-25 11:22:00,89.1,77.2,30.09,East,86,0.0,0.0,68,0.00,,,0.00,Wunderground v.1.15,2013-06-25 16:22:00,
2013-06-25 11:27:00,89.5,77.1,30.09,North,355,0.0,0.0,67,0.00,,,0.00,Wunderground v.1.15,2013-06-25 16:27:00,
2013-06-25 11:32:00,90.1,78.1,30.09,SW,229,0.0,0.0,68,0.00,,,0.00,Wunderground v.1.15,2013-06-25 16:32:00,
2013-06-25 11:38:00,89.8,76.9,30.09,East,101,0.0,0.0,66,0.00,,,0.00,Wunderground v.1.15,2013-06-25 16:38:00,
2013-06-25 11:48:00,89.4,77.4,30.09,North,355,0.0,0.0,68,0.00,,,0.00,Wunderground v.1.15,2013-06-25 16:48:00,
2013-06-25 11:53:00,88.4,76.9,30.09,ENE,74,0.0,0.0,69,0.00,,,0.00,Wunderground v.1.15,2013-06-25 16:53:00,
2013-06-25 11:58:00,87.9,75.6,30.09,SSE,157,0.0,0.0,67,0.00,,,0.00,Wunderground v.1.15,2013-06-25 16:58:00,
2013-06-25 12:03:00,88.3,76.8,30.08,SE,136,0.0,0.0,69,0.00,,,0.00,Wunderground v.1.15,2013-06-25 17:03:00,
2013-06-25 12:13:00,90.6,79.0,30.08,SSE,165,0.0,0.0,69,0.00,,,0.00,Wunderground v.1.15,2013-06-25 17:13:00,
2013-06-25 12:22:00,89.7,77.7,30.08,SW,229,0.0,0.0,68,0.00,,,0.00,Wunderground v.1.15,2013-06-25 17:22:00,
2013-06-25 12:27:00,89.9,76.6,30.08,South,188,0.0,0.0,65,0.00,,,0.00,Wunderground v.1.15,2013-06-25 17:27:00,
2013-06-25 12:32:00,88.9,75.6,30.08,South,184,0.0,1.0,65,0.00,,,0.00,Wunderground v.1.15,2013-06-25 17:32:00,
2013-06-25 12:38:00,88.8,75.0,30.08,NNE,18,1.0,1.0,64,0.00,,,0.00,Wunderground v.1.15,2013-06-25 17:38:00,
2013-06-25 12:43:00,89.4,75.6,30.08,SW,221,0.0,0.0,64,0.00,,,0.00,Wunderground v.1.15,2013-06-25 17:43:00,
2013-06-25 12:53:00,90.2,75.9,30.08,South,190,1.0,1.0,63,0.00,,,0.00,Wunderground v.1.15,2013-06-25 17:53:00,
2013-06-25 12:58:00,90.3,75.5,30.08,SE,128,0.0,1.0,62,0.00,,,0.00,Wunderground v.1.15,2013-06-25 17:58:00,
2013-06-25 13:03:00,90.2,75.4,30.07,East,95,0.0,0.0,62,0.00,,,0.00,Wunderground v.1.15,2013-06-25 18:03:00,
2013-06-25 13:13:00,90.5,75.7,30.07,SE,142,0.0,0.0,62,0.00,,,0.00,Wunderground v.1.15,2013-06-25 18:13:00,
2013-06-25 13:18:00,90.8,75.5,30.07,South,187,0.0,3.0,61,0.00,,,0.00,Wunderground v.1.15,2013-06-25 18:18:00,
2013-06-25 13:27:00,89.6,76.7,30.07,SSW,198,0.0,1.0,66,0.00,,,0.00,Wunderground v.1.15,2013-06-25 18:27:00,
2013-06-25 13:32:00,90.2,77.3,30.06,SSW,197,0.0,0.0,66,0.00,,,0.00,Wunderground v.1.15,2013-06-25 18:32:00,
2013-06-25 13:37:00,90.6,75.3,30.06,SSW,198,0.0,0.0,61,0.00,,,0.00,Wunderground v.1.15,2013-06-25 18:37:00,
2013-06-25 13:42:00,90.3,75.5,30.06,SSW,200,0.0,0.0,62,0.00,,,0.00,Wunderground v.1.15,2013-06-25 18:42:00,
2013-06-25 13:47:00,90.2,75.9,30.06,SSW,200,0.0,0.0,63,0.00,,,0.00,Wunderground v.1.15,2013-06-25 18:47:00,
2013-06-25 13:52:00,90.2,76.8,30.06,WSW,251,0.0,0.0,65,0.00,,,0.00,Wunderground v.1.15,2013-06-25 18:52:00,
2013-06-25 13:58:00,90.6,75.3,30.06,WNW,302,0.0,0.0,61,0.00,,,0.00,Wunderground v.1.15,2013-06-25 18:58:00,
2013-06-25 14:03:00,90.8,76.0,30.06,WNW,299,0.0,0.0,62,0.00,,,0.00,Wunderground v.1.15,2013-06-25 19:03:00,
2013-06-25 14:13:00,90.5,75.7,30.06,SSW,209,0.0,1.0,62,0.00,,,0.00,Wunderground v.1.15,2013-06-25 19:13:00,
2013-06-25 14:18:00,90.4,74.1,30.06,SSW,209,0.0,1.0,59,0.00,,,0.00,Wunderground v.1.15,2013-06-25 19:18:00,
2013-06-25 14:23:00,90.2,75.9,30.06,SW,234,0.0,0.0,63,0.00,,,0.00,Wunderground v.1.15,2013-06-25 19:23:00,
2013-06-25 14:32:00,90.7,74.9,30.06,SSE,151,0.0,0.0,60,0.00,,,0.00,Wunderground v.1.15,2013-06-25 19:32:00,
2013-06-25 14:37:00,90.8,76.5,30.06,West,275,0.0,0.0,63,0.00,,,0.00,Wunderground v.1.15,2013-06-25 19:37:00,
2013-06-25 14:42:00,90.7,74.9,30.06,SW,230,0.0,0.0,60,0.00,,,0.00,Wunderground v.1.15,2013-06-25 19:42:00,
2013-06-25 14:47:00,90.8,75.0,30.05,ESE,118,0.0,0.0,60,0.00,,,0.00,Wunderground v.1.15,2013-06-25 19:47:00,
2013-06-25 14:52:00,91.1,76.3,30.05,ESE,111,0.0,0.0,62,0.00,,,0.00,Wunderground v.1.15,2013-06-25 19:52:00,
2013-06-25 14:57:00,90.7,73.4,30.05,East,90,0.0,0.0,57,0.00,,,0.00,Wunderground v.1.15,2013-06-25 19:57:00,
2013-06-25 15:08:00,90.9,76.1,30.04,SW,228,0.0,0.0,62,0.00,,,0.00,Wunderground v.1.15,2013-06-25 20:08:00,
2013-06-25 15:13:00,90.4,75.6,30.04,SSE,167,0.0,0.0,62,0.00,,,0.00,Wunderground v.1.15,2013-06-25 20:13:00,
2013-06-25 15:18:00,89.6,75.3,30.04,ESE,105,0.0,1.0,63,0.00,,,0.00,Wunderground v.1.15,2013-06-25 20:18:00,
2013-06-25 15:23:00,89.8,74.6,30.04,SW,228,0.0,0.0,61,0.00,,,0.00,Wunderground v.1.15,2013-06-25 20:23:00,
2013-06-25 15:28:00,88.7,75.4,30.04,SSW,203,0.0,0.0,65,0.00,,,0.00,Wunderground v.1.15,2013-06-25 20:28:00,
2013-06-25 15:37:00,89.3,75.5,30.03,ESE,117,0.0,0.0,64,0.00,,,0.00,Wunderground v.1.15,2013-06-25 20:37:00,
2013-06-25 15:42:00,89.6,75.8,30.03,SW,223,0.0,0.0,64,0.00,,,0.00,Wunderground v.1.15,2013-06-25 20:42:00,
2013-06-25 15:47:00,89.4,75.1,30.03,SSW,205,0.0,0.0,63,0.00,,,0.00,Wunderground v.1.15,2013-06-25 20:47:00,
2013-06-25 15:52:00,88.9,75.6,30.03,SSE,161,0.0,0.0,65,0.00,,,0.00,Wunderground v.1.15,2013-06-25 20:52:00,
2013-06-25 15:57:00,88.8,76.0,30.03,SSW,196,0.0,0.0,66,0.00,,,0.00,Wunderground v.1.15,2013-06-25 20:57:00,
2013-06-25 16:08:00,88.4,75.1,30.03,WSW,254,0.0,0.0,65,0.00,,,0.00,Wunderground v.1.15,2013-06-25 21:08:00,
2013-06-25 16:18:00,88.1,74.8,30.03,SSE,148,0.0,0.0,65,0.00,,,0.00,Wunderground v.1.15,2013-06-25 21:18:00,
2013-06-25 16:23:00,87.7,74.0,30.03,WSW,246,0.0,0.0,64,0.00,,,0.00,Wunderground v.1.15,2013-06-25 21:23:00,
2013-06-25 16:32:00,88.0,75.7,30.03,West,264,0.0,0.0,67,0.00,,,0.00,Wunderground v.1.15,2013-06-25 21:32:00,
2013-06-25 16:37:00,87.9,75.1,30.02,South,178,0.0,0.0,66,0.00,,,0.00,Wunderground v.1.15,2013-06-25 21:37:00,
2013-06-25 16:43:00,87.5,75.6,30.03,South,178,0.0,0.0,68,0.00,,,0.00,Wunderground v.1.15,2013-06-25 21:43:00,
2013-06-25 16:48:00,87.4,76.0,30.03,South,178,0.0,0.0,69,0.00,,,0.00,Wunderground v.1.15,2013-06-25 21:48:00,
2013-06-25 16:52:00,87.5,75.2,30.02,South,178,0.0,0.0,67,0.00,,,0.00,Wunderground v.1.15,2013-06-25 21:52:00,
2013-06-25 16:57:00,87.4,75.5,30.02,South,178,0.0,0.0,68,0.00,,,0.00,Wunderground v.1.15,2013-06-25 21:57:00,
2013-06-25 17:02:00,87.4,76.4,30.02,South,180,0.0,0.0,70,0.00,,,0.00,Wunderground v.1.15,2013-06-25 22:02:00,
2013-06-25 17:08:00,87.5,76.1,30.02,South,180,0.0,0.0,69,0.00,,,0.00,Wunderground v.1.15,2013-06-25 22:08:00,
2013-06-25 17:18:00,87.2,75.3,30.01,South,180,0.0,0.0,68,0.00,,,0.00,Wunderground v.1.15,2013-06-25 22:18:00,
2013-06-25 17:23:00,86.8,75.8,30.01,South,180,0.0,0.0,70,0.00,,,0.00,Wunderground v.1.15,2013-06-25 22:23:00,
2013-06-25 17:28:00,86.5,75.1,30.01,SSE,148,0.0,0.0,69,0.00,,,0.00,Wunderground v.1.15,2013-06-25 22:28:00,
2013-06-25 17:38:00,86.1,74.7,30.01,South,169,0.0,0.0,69,0.00,,,0.00,Wunderground v.1.15,2013-06-25 22:38:00,
2013-06-25 17:47:00,85.9,74.1,30.00,WSW,252,0.0,0.0,68,0.00,,,0.00,Wunderground v.1.15,2013-06-25 22:47:00,
2013-06-25 17:52:00,85.8,75.3,30.00,SW,235,0.0,1.0,71,0.00,,,0.00,Wunderground v.1.15,2013-06-25 22:52:00,
2013-06-25 17:57:00,85.6,73.8,30.01,SW,234,0.0,1.0,68,0.00,,,0.00,Wunderground v.1.15,2013-06-25 22:57:00,
2013-06-25 18:02:00,85.4,73.6,30.01,SW,217,0.0,0.0,68,0.00,,,0.00,Wunderground v.1.15,2013-06-25 23:02:00,
2013-06-25 18:08:00,85.3,74.4,30.01,SSW,207,0.0,1.0,70,0.00,,,0.00,Wunderground v.1.15,2013-06-25 23:08:00,
2013-06-25 18:13:00,85.1,72.9,30.01,SSW,195,0.0,0.0,67,0.00,,,0.00,Wunderground v.1.15,2013-06-25 23:13:00,
2013-06-25 18:23:00,84.6,72.9,30.01,SSW,195,0.0,0.0,68,0.00,,,0.00,Wunderground v.1.15,2013-06-25 23:23:00,
2013-06-25 18:28:00,84.2,73.8,30.01,SSW,196,0.0,0.0,71,0.00,,,0.00,Wunderground v.1.15,2013-06-25 23:28:00,
2013-06-25 18:33:00,83.7,74.5,30.01,SSW,196,0.0,0.0,74,0.00,,,0.00,Wunderground v.1.15,2013-06-25 23:33:00,
2013-06-25 18:38:00,83.3,73.3,30.01,SSW,196,0.0,0.0,72,0.00,,,0.00,Wunderground v.1.15,2013-06-25 23:38:00,
2013-06-25 18:43:00,83.3,73.7,30.01,SSW,195,0.0,0.0,73,0.00,,,0.00,Wunderground v.1.15,2013-06-25 23:43:00,
2013-06-25 18:53:00,83.0,73.4,30.01,SSW,196,0.0,0.0,73,0.00,,,0.00,Wunderground v.1.15,2013-06-25 23:53:00,
2013-06-25 18:58:00,82.7,73.6,30.01,SSW,196,0.0,0.0,74,0.00,,,0.00,Wunderground v.1.15,2013-06-25 23:58:00,
2013-06-25 19:03:00,82.5,73.8,30.01,SSW,196,0.0,0.0,75,0.00,,,0.00,Wunderground v.1.15,2013-06-26 00:03:00,
2013-06-25 19:13:00,81.8,73.5,30.01,SSW,195,0.0,0.0,76,0.00,,,0.00,Wunderground v.1.15,2013-06-26 00:13:00,
2013-06-25 19:18:00,81.5,72.8,30.00,SSW,196,0.0,0.0,75,0.00,,,0.00,Wunderground v.1.15,2013-06-26 00:18:00,
2013-06-25 19:28:00,81.0,72.3,30.01,SSW,196,0.0,0.0,75,0.00,,,0.00,Wunderground v.1.15,2013-06-26 00:28:00,
2013-06-25 19:33:00,80.8,72.1,30.01,SSW,196,0.0,0.0,75,0.00,,,0.00,Wunderground v.1.15,2013-06-26 00:33:00,
2013-06-25 19:38:00,80.7,72.4,30.01,SW,214,0.0,0.0,76,0.00,,,0.00,Wunderground v.1.15,2013-06-26 00:38:00,
2013-06-25 19:43:00,80.4,72.1,30.01,SW,214,0.0,0.0,76,0.00,,,0.00,Wunderground v.1.15,2013-06-26 00:43:00,
2013-06-25 19:48:00,80.2,72.3,30.01,SW,214,0.0,0.0,77,0.00,,,0.00,Wunderground v.1.15,2013-06-26 00:48:00,
2013-06-25 19:57:00,79.4,72.3,30.01,SW,214,0.0,0.0,79,0.00,,,0.00,Wunderground v.1.15,2013-06-26 00:57:00,
2013-06-25 20:02:00,79.3,72.6,30.01,SW,214,0.0,0.0,80,0.00,,,0.00,Wunderground v.1.15,2013-06-26 01:02:00,
2013-06-25 20:08:00,79.2,72.1,30.01,SW,214,0.0,0.0,79,0.00,,,0.00,Wunderground v.1.15,2013-06-26 01:08:00,
2013-06-25 20:13:00,79.1,72.4,30.01,SW,214,0.0,0.0,80,0.00,,,0.00,Wunderground v.1.15,2013-06-26 01:13:00,
2013-06-25 20:18:00,78.9,72.2,30.01,SW,214,0.0,0.0,80,0.00,,,0.00,Wunderground v.1.15,2013-06-26 01:18:00,
2013-06-25 20:23:00,78.7,72.0,30.01,SW,214,0.0,0.0,80,0.00,,,0.00,Wunderground v.1.15,2013-06-26 01:23:00,
2013-06-25 20:33:00,78.5,72.2,30.01,SW,214,0.0,0.0,81,0.00,,,0.00,Wunderground v.1.15,2013-06-26 01:33:00,
2013-06-25 20:38:00,78.4,72.4,30.01,SW,214,0.0,0.0,82,0.00,,,0.00,Wunderground v.1.15,2013-06-26 01:38:00,
2013-06-25 20:43:00,78.2,72.3,30.01,SW,214,0.0,0.0,82,0.00,,,0.00,Wunderground v.1.15,2013-06-26 01:43:00,
2013-06-25 20:48:00,78.2,72.3,30.01,SW,214,0.0,0.0,82,0.00,,,0.00,Wunderground v.1.15,2013-06-26 01:48:00,
2013-06-25 20:53:00,78.0,72.4,30.01,SW,214,0.0,0.0,83,0.00,,,0.00,Wunderground v.1.15,2013-06-26 01:53:00,
2013-06-25 21:02:00,77.8,72.6,30.02,SW,214,0.0,0.0,84,0.00,,,0.00,Wunderground v.1.15,2013-06-26 02:02:00,
2013-06-25 21:12:00,77.6,72.4,30.02,SW,214,0.0,0.0,84,0.00,,,0.00,Wunderground v.1.15,2013-06-26 02:12:00,
2013-06-25 21:17:00,77.6,72.4,30.02,SW,214,0.0,0.0,84,0.00,,,0.00,Wunderground v.1.15,2013-06-26 02:17:00,
2013-06-25 21:22:00,77.5,72.3,30.03,SW,214,0.0,0.0,84,0.00,,,0.00,Wunderground v.1.15,2013-06-26 02:22:00,
2013-06-25 21:27:00,77.4,72.5,30.03,SW,214,0.0,0.0,85,0.00,,,0.00,Wunderground v.1.15,2013-06-26 02:27:00,
2013-06-25 21:38:00,77.1,72.6,30.03,SW,214,0.0,0.0,86,0.00,,,0.00,Wunderground v.1.15,2013-06-26 02:38:00,
2013-06-25 21:43:00,76.9,72.4,30.04,SW,214,0.0,0.0,86,0.00,,,0.00,Wunderground v.1.15,2013-06-26 02:43:00,
2013-06-25 21:48:00,76.3,72.5,30.04,SW,214,0.0,0.0,88,0.00,,,0.00,Wunderground v.1.15,2013-06-26 02:48:00,
2013-06-25 21:53:00,76.0,72.5,30.04,SW,214,0.0,0.0,89,0.00,,,0.00,Wunderground v.1.15,2013-06-26 02:53:00,
2013-06-25 21:58:00,75.8,72.3,30.04,SW,214,0.0,0.0,89,0.00,,,0.00,Wunderground v.1.15,2013-06-26 02:58:00,
2013-06-25 22:07:00,75.4,72.6,30.05,SW,214,0.0,0.0,91,0.00,,,0.00,Wunderground v.1.15,2013-06-26 03:07:00,
2013-06-25 22:12:00,75.1,72.3,30.05,SW,214,0.0,0.0,91,0.00,,,0.00,Wunderground v.1.15,2013-06-26 03:12:00,
2013-06-25 22:17:00,74.9,72.4,30.05,SW,214,0.0,0.0,92,0.00,,,0.00,Wunderground v.1.15,2013-06-26 03:17:00,
2013-06-25 22:22:00,74.8,72.3,30.05,SW,214,0.0,0.0,92,0.00,,,0.00,Wunderground v.1.15,2013-06-26 03:22:00,
2013-06-25 22:27:00,74.7,72.2,30.05,SW,214,0.0,0.0,92,0.00,,,0.00,Wunderground v.1.15,2013-06-26 03:27:00,
2013-06-25 22:32:00,74.6,72.4,30.05,SW,214,0.0,0.0,93,0.00,,,0.00,Wunderground v.1.15,2013-06-26 03:32:00,
2013-06-25 22:38:00,74.5,72.3,30.04,SW,214,0.0,0.0,93,0.00,,,0.00,Wunderground v.1.15,2013-06-26 03:38:00,
2013-06-25 22:43:00,74.4,72.2,30.04,SW,214,0.0,0.0,93,0.00,,,0.00,Wunderground v.1.15,2013-06-26 03:43:00,
2013-06-25 22:48:00,74.2,72.0,30.04,SW,214,0.0,0.0,93,0.00,,,0.00,Wunderground v.1.15,2013-06-26 03:48:00,
2013-06-25 22:53:00,74.0,71.8,30.03,SW,214,0.0,0.0,93,0.00,,,0.00,Wunderground v.1.15,2013-06-26 03:53:00,
2013-06-25 22:58:00,74.0,72.2,30.03,SW,214,0.0,0.0,94,0.00,,,0.00,Wunderground v.1.15,2013-06-26 03:58:00,
2013-06-25 23:03:00,74.2,72.4,30.03,SW,214,0.0,0.0,94,0.00,,,0.00,Wunderground v.1.15,2013-06-26 04:03:00,
2013-06-25 23:12:00,74.6,72.8,30.03,SW,214,0.0,0.0,94,0.00,,,0.00,Wunderground v.1.15,2013-06-26 04:12:00,
2013-06-25 23:17:00,74.8,72.6,30.03,SW,214,0.0,0.0,93,0.00,,,0.00,Wunderground v.1.15,2013-06-26 04:17:00,
2013-06-25 23:22:00,74.7,72.5,30.03,SW,214,0.0,0.0,93,0.00,,,0.00,Wunderground v.1.15,2013-06-26 04:22:00,
2013-06-25 23:27:00,74.6,72.4,30.03,SW,214,0.0,0.0,93,0.00,,,0.00,Wunderground v.1.15,2013-06-26 04:27:00,
2013-06-25 23:38:00,74.4,72.6,30.02,SW,214,0.0,0.0,94,0.00,,,0.00,Wunderground v.1.15,2013-06-26 04:38:00,
2013-06-25 23:48:00,74.5,72.7,30.01,SW,214,0.0,0.0,94,0.00,,,0.00,Wunderground v.1.15,2013-06-26 04:48:00,
2013-06-25 23:53:00,74.6,72.8,30.01,SW,214,0.0,0.0,94,0.00,,,0.00,Wunderground v.1.15,2013-06-26 04:53:00,
2013-06-25 23:58:00,74.9,73.1,30.01,SW,214,0.0,0.0,94,0.00,,,0.00,Wunderground v.1.15,2013-06-26 04:58:00,